Time;durP1;ratioP1;P1;durP2;ratioP2;P2;SDS_P1;SDS_P2;PMS_P1;PMS_P2;Temp;Humidity;BMP_temperature;BMP_pressure;BME280_temperature;BME280_humidity;BME280_pressure;Samples;Min_cycle;Max_cycle;Signal;HPM_P1;HPM_P2
2021/01/15 00:01:08;;;;;;;11.67;10.20;;;;;;;-1.33;100.00;101370.72;5029468;28;20051;-76
2021/01/15 00:03:38;;;;;;;12.40;8.87;;;;;;;-1.33;100.00;101371.63;5030305;28;20041;-77
2021/01/15 00:06:06;;;;;;;11.37;9.73;;;;;;;-1.33;100.00;101374.22;5029057;28;20151;-76
2021/01/15 00:08:33;;;;;;;14.13;11.67;;;;;;;-1.30;100.00;101370.84;5028440;28;20041;-78
2021/01/15 00:10:59;;;;;;;12.23;9.93;;;;;;;-1.30;100.00;101366.53;5027666;28;20032;-79
2021/01/15 00:13:26;;;;;;;13.13;10.47;;;;;;;-1.29;100.00;101373.47;5043088;28;20506;-79
2021/01/15 00:15:52;;;;;;;11.73;10.53;;;;;;;-1.28;100.00;101374.38;5007321;28;20509;-78
2021/01/15 00:18:18;;;;;;;10.37;8.67;;;;;;;-1.29;100.00;101380.38;5027796;28;20486;-78
2021/01/15 00:20:44;;;;;;;12.10;10.33;;;;;;;-1.29;100.00;101375.19;5020303;28;20044;-78
2021/01/15 00:23:11;;;;;;;12.67;10.50;;;;;;;-1.28;100.00;101380.44;5028662;28;20091;-78
2021/01/15 00:25:37;;;;;;;9.90;8.77;;;;;;;-1.30;100.00;101382.09;5028622;28;20045;-78
2021/01/15 00:28:04;;;;;;;11.73;6.47;;;;;;;-1.27;100.00;101368.34;5011893;28;20037;-78
2021/01/15 00:30:30;;;;;;;11.73;6.80;;;;;;;-1.27;100.00;101365.75;5028274;28;20602;-79
2021/01/15 00:32:56;;;;;;;10.00;5.67;;;;;;;-1.28;100.00;101358.81;5046118;28;20033;-78
2021/01/15 00:35:22;;;;;;;10.47;5.50;;;;;;;-1.28;100.00;101369.19;5027279;28;20548;-78
2021/01/15 00:37:49;;;;;;;10.03;5.47;;;;;;;-1.30;100.00;101363.06;5028695;28;20166;-78
2021/01/15 00:40:16;;;;;;;9.93;5.90;;;;;;;-1.29;100.00;101365.72;5028403;28;20397;-77
2021/01/15 00:42:42;;;;;;;10.90;5.70;;;;;;;-1.28;100.00;101369.19;5027817;28;20330;-77
2021/01/15 00:45:08;;;;;;;11.43;5.87;;;;;;;-1.27;100.00;101365.75;5029215;28;20029;-77
2021/01/15 00:47:35;;;;;;;11.93;6.47;;;;;;;-1.29;100.00;101368.31;5031436;28;20044;-79
2021/01/15 00:50:02;;;;;;;12.93;6.77;;;;;;;-1.28;100.00;101366.59;5049233;28;20041;-77
2021/01/15 00:52:28;;;;;;;14.07;6.83;;;;;;;-1.27;100.00;101376.13;5016931;28;20095;-77
2021/01/15 00:54:54;;;;;;;13.47;6.47;;;;;;;-1.27;100.00;101368.34;5031419;28;20060;-77
2021/01/15 00:57:20;;;;;;;13.13;5.97;;;;;;;-1.27;100.00;101371.81;5028594;28;20049;-77
2021/01/15 00:59:46;;;;;;;12.17;5.87;;;;;;;-1.26;100.00;101383.09;5014240;28;20049;-77
2021/01/15 01:02:12;;;;;;;13.13;6.33;;;;;;;-1.26;100.00;101384.00;5032578;28;20102;-77
2021/01/15 01:04:39;;;;;;;13.73;6.27;;;;;;;-1.26;100.00;101384.00;5024759;28;20044;-79
2021/01/15 01:07:05;;;;;;;13.50;6.77;;;;;;;-1.27;100.00;101384.78;5031452;28;20498;-79
2021/01/15 01:09:31;;;;;;;14.57;7.23;;;;;;;-1.25;100.00;101390.06;5031544;28;20049;-78
2021/01/15 01:11:58;;;;;;;14.63;7.50;;;;;;;-1.26;100.00;101394.38;5031449;28;20037;-78
2021/01/15 01:14:24;;;;;;;13.47;6.10;;;;;;;-1.28;100.00;101393.41;5030411;28;20464;-77
2021/01/15 01:16:50;;;;;;;13.63;6.07;;;;;;;-1.27;100.00;101396.88;5030005;28;20167;-77
2021/01/15 01:19:17;;;;;;;13.70;7.17;;;;;;;-1.27;100.00;101396.88;4996850;28;20127;-78
2021/01/15 01:21:43;;;;;;;13.93;6.70;;;;;;;-1.26;100.00;101401.22;5030025;28;20510;-78
2021/01/15 01:24:09;;;;;;;13.07;6.27;;;;;;;-1.28;100.00;101408.94;5030227;28;20707;-79
2021/01/15 01:26:35;;;;;;;14.30;7.33;;;;;;;-1.30;100.00;101405.41;5031144;28;20639;-78
2021/01/15 01:29:01;;;;;;;13.60;6.87;;;;;;;-1.33;100.00;101407.91;5046142;28;20033;-80
2021/01/15 01:31:28;;;;;;;13.33;7.57;;;;;;;-1.33;100.00;101407.03;5041593;28;20037;-78
2021/01/15 01:33:54;;;;;;;15.33;7.20;;;;;;;-1.33;100.00;101405.31;5013922;28;20406;-78
2021/01/15 01:36:20;;;;;;;14.17;7.50;;;;;;;-1.35;100.00;101412.13;5029116;28;20107;-79
2021/01/15 01:38:47;;;;;;;15.87;7.20;;;;;;;-1.37;100.00;101413.78;5047113;28;20041;-79
2021/01/15 01:41:13;;;;;;;14.70;6.43;;;;;;;-1.39;100.00;101410.25;5031097;28;20452;-79
2021/01/15 01:43:39;;;;;;;12.10;6.40;;;;;;;-1.42;100.00;101410.13;5041657;28;20040;-77
2021/01/15 01:46:06;;;;;;;14.70;7.60;;;;;;;-1.45;100.00;101410.88;5021027;28;20359;-77
2021/01/15 01:48:34;;;;;;;15.40;7.30;;;;;;;-1.42;100.00;101415.31;5030735;28;20033;-77
2021/01/15 01:51:01;;;;;;;13.17;6.40;;;;;;;-1.46;100.00;101418.59;5013771;28;20074;-79
2021/01/15 01:53:30;;;;;;;12.67;6.60;;;;;;;-1.50;100.00;101414.13;5047223;28;20045;-78
2021/01/15 01:55:57;;;;;;;11.97;6.80;;;;;;;-1.53;100.00;101419.16;5014066;28;20044;-78
2021/01/15 01:58:23;;;;;;;11.23;6.37;;;;;;;-1.55;100.00;101419.09;5029817;28;20128;-78
2021/01/15 02:00:57;;;;;;;14.67;7.00;;;;;;;-1.53;100.00;101424.34;5048512;28;20041;-77
2021/01/15 02:03:24;;;;;;;16.33;7.28;;;;;;;-1.53;100.00;101421.75;5047840;28;20427;-78
2021/01/15 02:05:50;;;;;;;16.03;7.73;;;;;;;-1.49;100.00;101423.66;5029591;28;20045;-78
2021/01/15 02:08:16;;;;;;;16.23;8.40;;;;;;;-1.44;100.00;101427.31;5030029;28;20071;-78
2021/01/15 02:10:55;;;;;;;15.00;7.40;;;;;;;-1.40;100.00;101424.03;5029724;28;20453;-78
2021/01/15 02:13:40;;;;;;;18.50;7.73;;;;;;;-1.37;100.00;101423.25;5012912;28;20037;-77
2021/01/15 02:16:09;;;;;;;12.37;6.27;;;;;;;-1.37;100.00;101431.91;5013873;28;20041;-79
2021/01/15 02:18:54;;;;;;;12.33;6.97;;;;;;;-1.33;100.00;101432.94;5043948;28;20505;-77
2021/01/15 02:21:47;;;;;;;11.50;6.30;;;;;;;-1.33;100.00;101433.81;5014208;28;20040;-79
2021/01/15 02:24:35;;;;;;;14.07;6.87;;;;;;;-1.29;100.00;101427.03;5026516;28;20029;-78
2021/01/15 02:27:15;;;;;;;11.23;5.77;;;;;;;-1.28;100.00;101423.63;5029990;28;20040;-77
2021/01/15 02:30:29;;;;;;;11.13;5.87;;;;;;;-1.28;100.00;101421.91;5036474;28;20049;-78
2021/01/15 02:32:59;;;;;;;13.90;7.00;;;;;;;-1.29;100.00;101412.38;5012464;28;20057;-78
2021/01/15 02:36:03;;;;;;;16.03;7.33;;;;;;;-1.28;100.00;101414.13;5029757;28;20032;-78
2021/01/15 02:38:48;;;;;;;13.20;6.30;;;;;;;-1.31;100.00;101426.09;5041708;28;20029;-78
2021/01/15 02:41:21;;;;;;;13.50;7.37;;;;;;;-1.33;100.00;101426.03;5045738;28;20037;-77
2021/01/15 02:44:03;;;;;;;14.60;7.43;;;;;;;-1.32;100.00;101429.53;5029663;28;20048;-78
2021/01/15 02:46:52;;;;;;;13.90;7.33;;;;;;;-1.30;100.00;101435.66;5042756;28;20067;-78
2021/01/15 02:49:19;;;;;;;13.30;6.50;;;;;;;-1.33;100.00;101436.41;5028977;28;20087;-79
2021/01/15 02:51:45;;;;;;;13.40;7.00;;;;;;;-1.34;100.00;101438.94;5012270;28;20071;-78
2021/01/15 02:54:11;;;;;;;17.17;7.77;;;;;;;-1.35;100.00;101438.03;5013107;28;20044;-78
2021/01/15 02:56:37;;;;;;;12.73;6.47;;;;;;;-1.37;100.00;101436.22;5032088;28;20037;-78
2021/01/15 02:59:07;;;;;;;15.10;6.83;;;;;;;-1.37;100.00;101439.69;5045475;28;20036;-78
2021/01/15 03:01:50;;;;;;;16.00;7.60;;;;;;;-1.36;100.00;101438.88;5032836;28;20077;-77
2021/01/15 03:04:27;;;;;;;11.47;6.60;;;;;;;-1.37;100.00;101438.81;5028918;28;20075;-78
2021/01/15 03:06:58;;;;;;;13.43;6.70;;;;;;;-1.38;100.00;101445.69;5044123;28;20292;-78
2021/01/15 03:09:30;;;;;;;13.67;6.93;;;;;;;-1.32;100.00;101438.19;5022490;28;20037;-77
2021/01/15 03:11:59;;;;;;;12.60;6.87;;;;;;;-1.38;100.00;101434.44;5029811;28;20041;-80
2021/01/15 03:14:30;;;;;;;12.33;7.00;;;;;;;-1.42;100.00;101434.34;5029539;28;20052;-78
2021/01/15 03:16:57;;;;;;;11.80;6.00;;;;;;;-1.45;100.00;101438.50;5029018;28;20583;-77
2021/01/15 03:19:25;;;;;;;11.03;5.93;;;;;;;-1.47;100.00;101429.78;5025010;28;20109;-76
2021/01/15 03:21:51;;;;;;;11.77;6.43;;;;;;;-1.47;100.00;101442.75;5028946;28;20052;-78
2021/01/15 03:24:17;;;;;;;12.33;6.33;;;;;;;-1.49;100.00;101439.22;5029339;28;20083;-78
2021/01/15 03:26:44;;;;;;;14.57;6.80;;;;;;;-1.49;100.00;101437.50;5033038;28;20099;-78
2021/01/15 03:29:13;;;;;;;12.83;6.33;;;;;;;-1.47;100.00;101437.56;5045368;28;20033;-76
2021/01/15 03:31:41;;;;;;;10.20;5.87;;;;;;;-1.52;100.00;101437.34;5029828;28;20566;-79
2021/01/15 03:34:07;;;;;;;11.43;5.80;;;;;;;-1.52;100.00;101441.66;5028047;28;20033;-80
2021/01/15 03:36:34;;;;;;;10.03;5.90;;;;;;;-1.58;100.00;101434.53;5025543;28;20036;-80
2021/01/15 03:39:02;;;;;;;8.13;5.37;;;;;;;-1.60;100.00;101438.75;5028353;28;20041;-77
2021/01/15 03:41:28;;;;;;;12.23;6.40;;;;;;;-1.64;100.00;101448.94;5028381;28;20028;-77
2021/01/15 03:43:54;;;;;;;10.00;5.53;;;;;;;-1.66;100.00;101450.59;5028339;28;20217;-78
2021/01/15 03:46:21;;;;;;;10.30;5.27;;;;;;;-1.68;100.00;101447.03;5046575;28;20045;-76
2021/01/15 03:48:47;;;;;;;12.23;6.77;;;;;;;-1.70;100.00;101442.69;5028363;28;20044;-77
2021/01/15 03:51:36;;;;;;;12.70;6.27;;;;;;;-1.72;100.00;101444.31;4964324;28;20058;-77
2021/01/15 03:54:03;;;;;;;12.60;6.33;;;;;;;-1.72;100.00;101446.91;4959091;28;20053;-78
2021/01/15 03:56:29;;;;;;;14.13;6.73;;;;;;;-1.66;100.00;101445.41;4968879;28;20215;-77
2021/01/15 03:58:55;;;;;;;12.00;6.67;;;;;;;-1.70;100.00;101445.25;4967091;28;20042;-77
2021/01/15 04:01:23;;;;;;;11.00;5.83;;;;;;;-1.67;100.00;101444.53;4971238;28;20054;-78
2021/01/15 04:03:50;;;;;;;13.80;6.87;;;;;;;-1.70;100.00;101442.69;4967271;28;20038;-76
2021/01/15 04:06:22;;;;;;;12.10;6.23;;;;;;;-1.65;100.00;101454.94;4967430;28;20577;-77
2021/01/15 04:08:48;;;;;;;13.17;6.80;;;;;;;-1.65;100.00;101442.88;4973949;28;20062;-78
2021/01/15 04:11:18;;;;;;;10.77;6.13;;;;;;;-1.66;100.00;101446.28;5002675;28;20041;-79
2021/01/15 04:13:44;;;;;;;10.50;6.27;;;;;;;-1.65;100.00;101439.41;5028021;28;20037;-79
2021/01/15 04:16:14;;;;;;;12.73;6.70;;;;;;;-1.64;100.00;101443.75;5045146;28;20119;-77
2021/01/15 04:18:41;;;;;;;11.67;6.50;;;;;;;-1.64;100.00;101441.16;5012228;28;20044;-78
2021/01/15 04:21:08;;;;;;;10.13;5.00;;;;;;;-1.63;100.00;101440.34;5016714;28;20090;-78
2021/01/15 04:23:34;;;;;;;9.57;5.80;;;;;;;-1.63;100.00;101445.53;5029415;28;20029;-77
2021/01/15 04:26:01;;;;;;;10.57;5.50;;;;;;;-1.63;100.00;101438.63;5029361;28;20088;-76
2021/01/15 04:28:28;;;;;;;9.67;5.23;;;;;;;-1.64;100.00;101441.16;5032187;28;20087;-77
2021/01/15 04:30:54;;;;;;;10.80;5.90;;;;;;;-1.62;100.00;101442.09;5030168;28;20522;-76
2021/01/15 04:33:20;;;;;;;10.80;5.73;;;;;;;-1.61;100.00;101436.09;5031015;28;20028;-77
2021/01/15 04:35:47;;;;;;;9.50;5.67;;;;;;;-1.61;100.00;101449.06;5032115;28;20057;-77
2021/01/15 04:38:13;;;;;;;11.17;5.73;;;;;;;-1.63;100.00;101432.56;5045606;28;20037;-78
2021/01/15 04:40:39;;;;;;;10.63;6.00;;;;;;;-1.63;100.00;101433.44;5032552;28;20083;-78
2021/01/15 04:43:05;;;;;;;9.47;5.53;;;;;;;-1.62;100.00;101432.63;5032062;28;20116;-78
2021/01/15 04:45:32;;;;;;;10.90;5.83;;;;;;;-1.60;100.00;101443.06;5031871;28;20068;-76
2021/01/15 04:48:02;;;;;;;10.70;5.60;;;;;;;-1.61;100.00;101433.50;5030027;28;20063;-77
2021/01/15 04:50:29;;;;;;;9.27;4.57;;;;;;;-1.59;100.00;101434.50;5014968;28;20132;-76
2021/01/15 04:52:58;;;;;;;9.17;5.30;;;;;;;-1.60;100.00;101428.38;5031085;28;20044;-79
2021/01/15 04:55:25;;;;;;;10.87;6.40;;;;;;;-1.58;100.00;101433.66;5031640;28;20044;-78
2021/01/15 04:57:53;;;;;;;9.80;5.53;;;;;;;-1.58;100.00;101431.06;5015578;28;20041;-78
2021/01/15 05:00:24;;;;;;;10.30;5.33;;;;;;;-1.60;100.00;101435.28;5030480;28;20422;-78
2021/01/15 05:02:50;;;;;;;10.27;5.27;;;;;;;-1.59;100.00;101434.50;5031063;28;20041;-77
2021/01/15 05:05:26;;;;;;;9.07;5.30;;;;;;;-1.59;100.00;101431.91;5030841;28;20049;-76
2021/01/15 05:08:14;;;;;;;9.77;5.73;;;;;;;-1.59;100.00;101431.91;5044170;28;20045;-76
2021/01/15 05:10:42;;;;;;;11.57;5.63;;;;;;;-1.59;100.00;101429.31;5031735;28;20049;-76
2021/01/15 05:13:10;;;;;;;9.87;5.90;;;;;;;-1.59;100.00;101429.31;5030658;28;20039;-76
2021/01/15 05:15:44;;;;;;;9.00;5.50;;;;;;;-1.59;100.00;101429.31;5030879;28;20102;-77
2021/01/15 05:18:10;;;;;;;10.27;5.88;;;;;;;-1.58;100.00;101438.84;5031485;28;20116;-77
2021/01/15 05:20:37;;;;;;;9.57;5.53;;;;;;;-1.60;100.00;101436.16;5015471;28;20056;-77
2021/01/15 05:23:04;;;;;;;10.23;5.53;;;;;;;-1.61;100.00;101436.09;5031219;28;20091;-76
2021/01/15 05:25:31;;;;;;;11.23;5.40;;;;;;;-1.51;100.00;101440.88;5031487;28;20083;-77
2021/01/15 05:28:00;;;;;;;9.70;5.57;;;;;;;-1.59;100.00;101435.38;5030482;28;20501;-76
2021/01/15 05:30:27;;;;;;;12.40;6.60;;;;;;;-1.64;100.00;101439.47;5045299;28;20095;-77
2021/01/15 05:32:55;;;;;;;9.73;5.60;;;;;;;-1.60;100.00;101443.06;5030573;28;20696;-76
2021/01/15 05:35:22;;;;;;;8.40;5.50;;;;;;;-1.63;100.00;101437.75;5029080;28;20037;-78
2021/01/15 05:37:58;;;;;;;10.93;5.87;;;;;;;-1.67;100.00;101446.25;5031554;28;20037;-76
2021/01/15 05:40:35;;;;;;;11.33;5.87;;;;;;;-1.66;100.00;101454.06;5030356;28;20051;-76
2021/01/15 05:43:02;;;;;;;9.90;5.93;;;;;;;-1.66;100.00;101446.28;5013948;28;20094;-77
2021/01/15 05:45:28;;;;;;;13.00;6.17;;;;;;;-1.64;100.00;101452.41;5030904;28;20033;-76
2021/01/15 05:47:54;;;;;;;11.17;5.40;;;;;;;-1.66;100.00;101448.88;5045956;28;20399;-76
2021/01/15 05:50:21;;;;;;;10.50;6.27;;;;;;;-1.66;100.00;101454.06;5014105;28;20048;-77
2021/01/15 05:52:55;;;;;;;11.80;6.07;;;;;;;-1.67;100.00;101449.72;5030537;28;20064;-76
2021/01/15 05:55:24;;;;;;;;;;;;;;;-1.71;100.00;101455.56;5034844;28;20518;-76
2021/01/15 05:57:51;;;;;;;10.17;4.93;;;;;;;-1.69;100.00;101461.69;5030405;28;20336;-75
2021/01/15 06:00:32;;;;;;;9.67;5.37;;;;;;;-1.72;100.00;101464.16;5031381;28;20102;-75
2021/01/15 06:02:59;;;;;;;11.63;6.00;;;;;;;-1.75;100.00;101457.16;5024158;28;20029;-76
2021/01/15 06:05:25;;;;;;;10.97;6.40;;;;;;;-1.74;100.00;101461.53;5029432;28;20049;-73
2021/01/15 06:07:55;;;;;;;10.00;5.83;;;;;;;-1.75;100.00;101469.22;5046541;28;20045;-74
2021/01/15 06:10:25;;;;;;;12.67;6.57;;;;;;;-1.75;100.00;101466.63;5013011;28;20041;-75
2021/01/15 06:12:52;;;;;;;8.57;5.77;;;;;;;-1.75;100.00;101474.41;5013037;28;20044;-76
2021/01/15 06:15:18;;;;;;;10.37;6.33;;;;;;;-1.76;100.00;101472.66;5028474;28;20079;-76
2021/01/15 06:17:46;;;;;;;12.03;5.53;;;;;;;-1.75;100.00;101475.28;5040734;28;20041;-76
2021/01/15 06:20:18;;;;;;;11.57;6.00;;;;;;;-1.74;100.00;101471.88;5029834;28;20044;-75
2021/01/15 06:22:47;;;;;;;8.70;5.33;;;;;;;-1.76;100.00;101477.81;5048335;28;20559;-75
2021/01/15 06:25:33;;;;;;;8.23;5.07;;;;;;;-1.77;100.00;101482.09;5030664;28;20494;-76
2021/01/15 06:28:04;;;;;;;8.67;5.03;;;;;;;-1.76;100.00;101486.47;5041026;28;20037;-75
2021/01/15 06:30:33;;;;;;;9.13;5.10;;;;;;;-1.77;100.00;101487.25;5030094;28;20045;-75
2021/01/15 06:33:10;;;;;;;9.23;5.60;;;;;;;-1.73;100.00;101484.00;5028206;28;20091;-75
2021/01/15 06:35:39;;;;;;;8.70;4.83;;;;;;;-1.78;100.00;101484.63;5029401;28;20037;-75
2021/01/15 06:38:13;;;;;;;8.00;4.90;;;;;;;-1.80;100.00;101489.75;5026777;28;20037;-76
2021/01/15 06:40:43;;;;;;;9.27;5.22;;;;;;;-1.80;100.00;101488.84;5029300;28;20048;-75
2021/01/15 06:43:11;;;;;;;8.57;4.70;;;;;;;-1.72;100.00;101490.94;5044595;28;20586;-75
2021/01/15 06:45:42;;;;;;;8.93;5.67;;;;;;;-1.81;100.00;101495.75;5009354;28;20102;-76
2021/01/15 06:48:14;;;;;;;8.13;4.47;;;;;;;-1.83;100.00;101501.69;5119137;22;21177;-70
2021/01/15 06:50:41;;;;;;;10.83;5.40;;;;;;;-1.82;100.00;101501.75;5048107;28;20199;-70
2021/01/15 06:53:20;;;;;;;6.83;5.07;;;;;;;-1.80;100.00;101507.00;5043479;28;20090;-70
2021/01/15 06:55:53;;;;;;;8.00;4.87;;;;;;;-1.82;100.00;101503.47;5054952;28;20202;-68
2021/01/15 06:58:25;;;;;;;7.70;5.13;;;;;;;-1.79;100.00;101506.16;5065387;28;20048;-69
2021/01/15 07:01:17;;;;;;;8.63;5.23;;;;;;;-1.82;100.00;101511.22;5041510;28;20121;-69
2021/01/15 07:04:08;;;;;;;12.13;5.70;;;;;;;-1.84;100.00;101516.34;5048874;28;20374;-69
2021/01/15 07:06:37;;;;;;;10.27;5.43;;;;;;;-1.84;100.00;101513.75;5041275;28;20082;-69
2021/01/15 07:09:06;;;;;;;9.73;5.60;;;;;;;-1.84;100.00;101516.34;5037488;28;20044;-72
2021/01/15 07:11:32;;;;;;;10.47;5.77;;;;;;;-1.84;100.00;101510.28;5040090;28;20072;-70
2021/01/15 07:14:04;;;;;;;11.10;5.87;;;;;;;-1.77;100.00;101514.88;5036360;28;20032;-70
2021/01/15 07:16:35;;;;;;;9.57;5.37;;;;;;;-1.84;100.00;101512.88;5037208;28;20037;-70
2021/01/15 07:19:13;;;;;;;10.83;5.37;;;;;;;-1.82;100.00;101519.00;5063850;28;20041;-70
2021/01/15 07:21:57;;;;;;;10.47;6.20;;;;;;;-1.82;100.00;101526.75;5056728;28;20044;-69
2021/01/15 07:24:34;;;;;;;12.57;6.72;;;;;;;-1.82;100.00;101525.06;5038950;28;20033;-69
2021/01/15 07:27:01;;;;;;;9.97;6.13;;;;;;;-1.78;100.00;101526.94;5037024;28;20036;-71
2021/01/15 07:29:29;;;;;;;10.93;6.37;;;;;;;-1.81;100.00;101528.53;5056899;28;20033;-71
2021/01/15 07:31:57;;;;;;;10.93;6.00;;;;;;;-1.81;100.00;101528.53;5046499;28;20497;-69
2021/01/15 07:34:26;;;;;;;9.93;6.60;;;;;;;-1.85;100.00;101532.72;5045663;28;20055;-69
2021/01/15 07:36:52;;;;;;;9.83;6.33;;;;;;;-1.83;100.00;101533.66;5043192;28;20082;-69
2021/01/15 07:39:22;;;;;;;10.23;5.90;;;;;;;-1.79;100.00;101529.47;5054469;28;20103;-69
2021/01/15 07:41:53;;;;;;;10.40;6.57;;;;;;;-1.81;100.00;101531.13;5039910;28;20726;-68
2021/01/15 07:44:22;;;;;;;14.10;8.33;;;;;;;-1.82;100.00;101539.72;5038973;28;20040;-70
2021/01/15 07:46:52;;;;;;;13.20;7.57;;;;;;;-1.83;100.00;101538.84;5038657;28;20453;-68
2021/01/15 07:49:19;;;;;;;11.77;6.53;;;;;;;-1.81;100.00;101550.13;5030663;28;20086;-70
2021/01/15 07:52:04;;;;;;;10.57;5.83;;;;;;;-1.80;100.00;101545.84;5066870;28;20052;-69
2021/01/15 07:55:00;;;;;;;12.35;8.10;;;;;;;-1.79;100.00;101547.59;5060247;28;20106;-70
2021/01/15 07:57:30;;;;;;;9.57;5.77;;;;;;;-1.81;100.00;101547.53;5052422;28;20114;-69
2021/01/15 07:59:57;;;;;;;13.57;8.10;;;;;;;-1.82;100.00;101545.78;5055540;28;20409;-70
2021/01/15 08:02:23;;;;;;;10.50;7.07;;;;;;;-1.80;100.00;101551.91;5040296;28;20132;-68
2021/01/15 08:05:02;;;;;;;13.07;7.23;;;;;;;-1.80;100.00;101548.44;5060104;28;20416;-70
2021/01/15 08:07:38;;;;;;;10.27;6.13;;;;;;;-1.81;100.00;101555.31;5040540;28;20048;-69
2021/01/15 08:10:09;;;;;;;11.73;7.07;;;;;;;-1.80;100.00;101548.44;5053447;28;20090;-70
2021/01/15 08:12:40;;;;;;;13.33;6.73;;;;;;;-1.81;100.00;101551.84;5047214;28;20146;-70
2021/01/15 08:15:27;;;;;;;12.00;6.93;;;;;;;-1.78;100.00;101560.63;5032855;28;20045;-69
2021/01/15 08:17:53;;;;;;;13.70;7.00;;;;;;;-1.80;100.00;101549.31;5061688;28;20059;-72
2021/01/15 08:20:20;;;;;;;12.33;6.47;;;;;;;-1.78;100.00;101558.03;5050055;28;20037;-71
2021/01/15 08:22:50;;;;;;;12.10;6.73;;;;;;;-1.71;100.00;101556.59;5059534;28;20040;-71
2021/01/15 08:25:26;;;;;;;12.57;7.00;;;;;;;-1.65;100.00;101550.81;5042970;28;20394;-71
2021/01/15 08:27:53;;;;;;;11.53;5.77;;;;;;;-1.57;100.00;101559.78;5042290;28;20032;-71
2021/01/15 08:30:19;;;;;;;9.80;5.93;;;;;;;-1.55;100.00;101560.75;5040933;28;20044;-70
2021/01/15 08:32:45;;;;;;;9.90;5.53;;;;;;;-1.53;100.00;101565.16;5040280;28;20482;-72
2021/01/15 08:35:25;;;;;;;10.60;6.67;;;;;;;-1.51;100.00;101573.91;5042024;28;20037;-71
2021/01/15 08:38:01;;;;;;;11.90;5.77;;;;;;;-1.41;100.00;101580.38;5042776;28;20127;-72
2021/01/15 08:40:38;;;;;;;10.07;5.23;;;;;;;-1.38;100.00;101569.22;5035543;28;20055;-71
2021/01/15 08:43:05;;;;;;;9.87;5.93;;;;;;;-1.26;100.00;101575.84;5037737;28;20634;-72
2021/01/15 08:45:32;;;;;;;10.20;6.07;;;;;;;-1.16;100.00;101572.78;5057847;28;20495;-71
2021/01/15 08:47:59;;;;;;;11.70;7.37;;;;;;;-1.11;100.00;101580.75;5034666;28;20065;-72
2021/01/15 08:50:27;;;;;;;10.60;6.47;;;;;;;-1.02;100.00;101575.94;5055030;28;20048;-71
2021/01/15 08:52:53;;;;;;;9.57;6.70;;;;;;;-0.90;100.00;101589.41;5055628;28;20042;-72
2021/01/15 08:55:19;;;;;;;11.33;7.10;;;;;;;-0.94;100.00;101587.50;5053478;28;20041;-71
2021/01/15 08:57:49;;;;;;;8.83;5.30;;;;;;;-0.93;100.00;101590.97;5051049;28;20072;-70
2021/01/15 09:00:19;;;;;;;9.40;5.70;;;;;;;-0.91;100.00;101587.66;5052529;28;20047;-72
2021/01/15 09:02:45;;;;;;;8.40;5.03;;;;;;;-0.87;100.00;101592.13;5051617;28;20043;-71
2021/01/15 09:05:17;;;;;;;8.67;4.97;;;;;;;-0.88;100.00;101595.56;5039931;28;20044;-70
2021/01/15 09:07:48;;;;;;;8.03;5.37;;;;;;;-0.93;100.00;101604.84;5031226;28;20087;-71
2021/01/15 09:10:16;;;;;;;9.93;5.40;;;;;;;-0.94;100.00;101597.88;5038712;28;20489;-72
2021/01/15 09:12:44;;;;;;;8.60;5.53;;;;;;;-0.98;100.00;101600.31;5042177;28;20512;-70
2021/01/15 09:15:24;;;;;;;9.80;5.97;;;;;;;-1.06;100.00;101602.56;5041403;28;20090;-71
2021/01/15 09:17:50;;;;;;;10.60;5.43;;;;;;;-1.18;100.00;101596.88;5040051;28;20102;-70
2021/01/15 09:20:17;;;;;;;11.93;5.13;;;;;;;-1.18;100.00;101594.28;5036611;28;20047;-71
2021/01/15 09:22:43;;;;;;;10.37;5.53;;;;;;;-1.15;100.00;101600.50;5048782;28;20060;-71
2021/01/15 09:25:13;;;;;;;11.53;5.80;;;;;;;-1.19;100.00;101602.88;5065547;28;20497;-71
2021/01/15 09:27:40;;;;;;;7.70;4.73;;;;;;;-1.17;100.00;101609.03;5023791;28;20090;-72
2021/01/15 09:30:07;;;;;;;8.07;5.57;;;;;;;-1.13;100.00;101613.50;5038725;28;20040;-70
2021/01/15 09:32:33;;;;;;;8.10;5.33;;;;;;;-1.09;100.00;101612.84;5040335;28;20041;-71
2021/01/15 09:34:59;;;;;;;9.03;5.60;;;;;;;-1.01;100.00;101614.03;5058343;28;20130;-72
2021/01/15 09:37:26;;;;;;;10.37;5.57;;;;;;;-1.06;100.00;101612.94;5059064;28;20064;-71
2021/01/15 09:39:52;;;;;;;10.57;5.70;;;;;;;-1.04;100.00;101616.50;5048054;28;20102;-71
2021/01/15 09:42:18;;;;;;;7.70;5.13;;;;;;;-1.00;100.00;101617.53;5052219;28;20416;-70
2021/01/15 09:44:44;;;;;;;8.33;4.87;;;;;;;-1.05;100.00;101619.03;5050930;28;20064;-71
2021/01/15 09:47:10;;;;;;;8.87;4.93;;;;;;;-1.08;100.00;101624.09;5046868;28;20049;-71
2021/01/15 09:49:37;;;;;;;10.13;5.07;;;;;;;-1.08;100.00;101619.78;5026737;28;20060;-71
2021/01/15 09:52:03;;;;;;;8.17;4.70;;;;;;;-1.07;100.00;101626.75;5061642;28;20047;-71
2021/01/15 09:54:34;;;;;;;8.27;4.80;;;;;;;-1.12;100.00;101633.44;5066376;28;20033;-71
2021/01/15 09:57:01;;;;;;;7.97;5.27;;;;;;;-1.09;100.00;101624.88;5069577;28;20171;-71
2021/01/15 09:59:27;;;;;;;8.27;4.80;;;;;;;-1.10;100.00;101639.56;5061709;28;20048;-71
2021/01/15 10:01:54;;;;;;;9.00;4.90;;;;;;;-1.09;100.00;101631.00;5054380;28;20452;-70
2021/01/15 10:04:20;;;;;;;9.30;5.27;;;;;;;-1.06;100.00;101630.22;5054845;28;20029;-71
2021/01/15 10:06:46;;;;;;;9.43;6.40;;;;;;;-1.13;100.00;101624.78;5044995;28;20040;-72
2021/01/15 10:09:13;;;;;;;9.37;4.90;;;;;;;-1.09;100.00;101630.06;5035200;28;20048;-72
2021/01/15 10:11:42;;;;;;;8.83;4.80;;;;;;;-1.06;100.00;101625.03;5053975;28;20064;-71
2021/01/15 10:14:10;;;;;;;8.70;5.40;;;;;;;-1.02;100.00;101624.31;5036069;28;20420;-71
2021/01/15 10:16:37;;;;;;;10.00;5.33;;;;;;;-0.97;100.00;101625.41;5057899;28;20067;-71
2021/01/15 10:19:04;;;;;;;8.63;5.20;;;;;;;-0.96;100.00;101627.19;5036591;28;20590;-71
2021/01/15 10:21:32;;;;;;;7.60;5.33;;;;;;;-0.92;100.00;101626.50;5056444;28;21246;-70
2021/01/15 10:23:59;;;;;;;8.60;4.70;;;;;;;-0.87;100.00;101627.56;5056275;28;20036;-70
2021/01/15 10:26:26;;;;;;;9.30;5.40;;;;;;;-0.88;100.00;101626.69;5037098;28;20033;-71
2021/01/15 10:28:57;;;;;;;9.47;5.10;;;;;;;-0.83;100.00;101621.69;5048605;28;20392;-70
2021/01/15 10:31:24;;;;;;;9.67;5.50;;;;;;;-0.86;100.00;101622.44;5059228;28;20036;-71
2021/01/15 10:33:50;;;;;;;9.63;5.60;;;;;;;-0.85;100.00;101626.78;5041323;28;20046;-71
2021/01/15 10:36:16;;;;;;;10.80;5.37;;;;;;;-0.86;100.00;101622.44;5058875;28;20102;-71
2021/01/15 10:38:43;;;;;;;10.00;5.90;;;;;;;-0.83;100.00;101618.22;5064109;28;20065;-71
2021/01/15 10:41:09;;;;;;;8.53;5.43;;;;;;;-0.92;100.00;101629.09;5035967;28;20045;-71
2021/01/15 10:43:35;;;;;;;8.53;5.13;;;;;;;-0.92;100.00;101621.31;5063645;28;20044;-70
2021/01/15 10:46:02;;;;;;;10.33;5.30;;;;;;;-0.95;100.00;101623.75;5068075;28;20044;-70
2021/01/15 10:48:28;;;;;;;10.33;5.43;;;;;;;-0.97;100.00;101631.50;5042324;28;20502;-71
2021/01/15 10:50:54;;;;;;;10.43;5.27;;;;;;;-0.95;100.00;101623.75;5049282;28;20119;-71
2021/01/15 10:53:20;;;;;;;9.83;5.60;;;;;;;-0.92;100.00;101624.78;5034909;28;20064;-70
2021/01/15 10:55:48;;;;;;;11.73;5.90;;;;;;;-0.96;100.00;101627.19;5056391;28;20074;-72
2021/01/15 10:58:15;;;;;;;9.60;6.07;;;;;;;-0.95;100.00;101624.66;5037394;28;20090;-71
2021/01/15 11:00:42;;;;;;;10.20;5.60;;;;;;;-0.99;100.00;101632.25;5040668;28;20033;-70
2021/01/15 11:03:08;;;;;;;7.77;5.00;;;;;;;-1.01;100.00;101623.50;5037398;28;20095;-71
2021/01/15 11:05:34;;;;;;;10.80;6.27;;;;;;;-1.04;100.00;101625.97;5047275;28;20033;-70
2021/01/15 11:08:00;;;;;;;10.80;5.20;;;;;;;-1.04;100.00;101623.38;5040091;28;20036;-70
2021/01/15 11:10:26;;;;;;;11.80;6.67;;;;;;;-1.15;100.00;101630.72;5053743;28;20595;-70
2021/01/15 11:12:58;;;;;;;9.33;5.57;;;;;;;-1.08;100.00;101622.38;5061002;28;20057;-71
2021/01/15 11:15:25;;;;;;;10.27;5.80;;;;;;;-1.09;100.00;101622.28;5036880;28;20040;-71
2021/01/15 11:17:51;;;;;;;10.80;5.77;;;;;;;-1.04;100.00;101623.38;5049570;28;20133;-71
2021/01/15 11:20:19;;;;;;;8.70;4.90;;;;;;;-0.97;100.00;101623.72;5041919;28;20040;-72
2021/01/15 11:22:46;;;;;;;10.57;5.80;;;;;;;-0.92;100.00;101624.78;5031613;28;20127;-71